sensor_id;sensor_type;location;lat;lon;timestamp;P1;durP1;ratioP1;P2;durP2;ratioP2
66485;SDS011;53303;47.476;8.084;2022-08-03T00:00:46;2.85;;;1.20;;
66485;SDS011;53303;47.476;8.084;2022-08-03T00:03:12;3.13;;;1.02;;
66485;SDS011;53303;47.476;8.084;2022-08-03T00:05:40;2.50;;;1.15;;
66485;SDS011;53303;47.476;8.084;2022-08-03T00:08:05;2.47;;;1.08;;
66485;SDS011;53303;47.476;8.084;2022-08-03T00:10:31;2.80;;;1.20;;
66485;SDS011;53303;47.476;8.084;2022-08-03T00:12:56;4.15;;;1.55;;
66485;SDS011;53303;47.476;8.084;2022-08-03T00:15:22;2.80;;;1.13;;
66485;SDS011;53303;47.476;8.084;2022-08-03T00:17:47;2.67;;;1.20;;
66485;SDS011;53303;47.476;8.084;2022-08-03T00:20:13;3.20;;;1.40;;
66485;SDS011;53303;47.476;8.084;2022-08-03T00:22:38;2.70;;;1.10;;
66485;SDS011;53303;47.476;8.084;2022-08-03T00:25:06;2.72;;;1.10;;
66485;SDS011;53303;47.476;8.084;2022-08-03T00:27:32;1.45;;;0.85;;
66485;SDS011;53303;47.476;8.084;2022-08-03T00:30:00;2.25;;;0.90;;
66485;SDS011;53303;47.476;8.084;2022-08-03T00:32:26;3.75;;;1.17;;
66485;SDS011;53303;47.476;8.084;2022-08-03T00:34:54;3.70;;;1.30;;
66485;SDS011;53303;47.476;8.084;2022-08-03T00:37:21;3.25;;;1.10;;
66485;SDS011;53303;47.476;8.084;2022-08-03T00:39:47;2.85;;;1.17;;
66485;SDS011;53303;47.476;8.084;2022-08-03T00:42:12;2.80;;;1.13;;
66485;SDS011;53303;47.476;8.084;2022-08-03T00:44:38;2.88;;;1.13;;
66485;SDS011;53303;47.476;8.084;2022-08-03T00:47:04;2.20;;;1.10;;
66485;SDS011;53303;47.476;8.084;2022-08-03T00:49:30;3.10;;;1.20;;
66485;SDS011;53303;47.476;8.084;2022-08-03T00:51:56;2.85;;;1.10;;
66485;SDS011;53303;47.476;8.084;2022-08-03T00:54:21;2.50;;;1.20;;
66485;SDS011;53303;47.476;8.084;2022-08-03T00:56:49;1.75;;;1.00;;
66485;SDS011;53303;47.476;8.084;2022-08-03T00:59:15;2.28;;;1.13;;
66485;SDS011;53303;47.476;8.084;2022-08-03T01:01:40;3.35;;;1.15;;
66485;SDS011;53303;47.476;8.084;2022-08-03T01:04:08;3.05;;;1.10;;
66485;SDS011;53303;47.476;8.084;2022-08-03T01:06:50;1.50;;;1.00;;
66485;SDS011;53303;47.476;8.084;2022-08-03T01:09:32;3.35;;;1.10;;
66485;SDS011;53303;47.476;8.084;2022-08-03T01:14:54;1.90;;;0.85;;
66485;SDS011;53303;47.476;8.084;2022-08-03T01:20:13;3.28;;;1.27;;
66485;SDS011;53303;47.476;8.084;2022-08-03T01:32:57;3.00;;;1.20;;
66485;SDS011;53303;47.476;8.084;2022-08-03T01:38:17;2.40;;;0.93;;
66485;SDS011;53303;47.476;8.084;2022-08-03T01:41:09;3.45;;;1.20;;
66485;SDS011;53303;47.476;8.084;2022-08-03T01:43:43;1.83;;;0.93;;
66485;SDS011;53303;47.476;8.084;2022-08-03T01:46:12;2.92;;;1.20;;
66485;SDS011;53303;47.476;8.084;2022-08-03T01:48:41;3.17;;;1.30;;
66485;SDS011;53303;47.476;8.084;2022-08-03T01:51:09;2.95;;;1.20;;
66485;SDS011;53303;47.476;8.084;2022-08-03T01:53:35;2.85;;;1.10;;
66485;SDS011;53303;47.476;8.084;2022-08-03T01:56:02;2.97;;;1.20;;
66485;SDS011;53303;47.476;8.084;2022-08-03T01:58:30;2.28;;;1.20;;
66485;SDS011;53303;47.476;8.084;2022-08-03T02:00:58;1.95;;;1.13;;
66485;SDS011;53303;47.476;8.084;2022-08-03T02:03:25;2.33;;;1.10;;
66485;SDS011;53303;47.476;8.084;2022-08-03T02:05:53;4.40;;;1.45;;
66485;SDS011;53303;47.476;8.084;2022-08-03T02:08:21;3.28;;;1.15;;
66485;SDS011;53303;47.476;8.084;2022-08-03T02:10:51;4.53;;;1.15;;
66485;SDS011;53303;47.476;8.084;2022-08-03T02:13:21;2.00;;;1.10;;
66485;SDS011;53303;47.476;8.084;2022-08-03T02:15:50;3.40;;;1.20;;
66485;SDS011;53303;47.476;8.084;2022-08-03T02:18:17;4.63;;;1.17;;
66485;SDS011;53303;47.476;8.084;2022-08-03T02:20:47;3.63;;;1.25;;
66485;SDS011;53303;47.476;8.084;2022-08-03T02:23:17;4.38;;;1.23;;
66485;SDS011;53303;47.476;8.084;2022-08-03T02:25:44;2.17;;;1.08;;
66485;SDS011;53303;47.476;8.084;2022-08-03T02:28:17;3.38;;;1.20;;
66485;SDS011;53303;47.476;8.084;2022-08-03T02:30:45;3.55;;;1.30;;
66485;SDS011;53303;47.476;8.084;2022-08-03T02:33:17;3.85;;;1.05;;
66485;SDS011;53303;47.476;8.084;2022-08-03T02:35:47;2.08;;;1.10;;
66485;SDS011;53303;47.476;8.084;2022-08-03T02:38:15;2.13;;;1.25;;
66485;SDS011;53303;47.476;8.084;2022-08-03T02:40:44;3.05;;;1.20;;
66485;SDS011;53303;47.476;8.084;2022-08-03T02:43:11;3.95;;;1.10;;
66485;SDS011;53303;47.476;8.084;2022-08-03T02:45:42;3.05;;;1.05;;
66485;SDS011;53303;47.476;8.084;2022-08-03T02:48:09;5.30;;;1.38;;
66485;SDS011;53303;47.476;8.084;2022-08-03T02:53:08;5.07;;;1.40;;
66485;SDS011;53303;47.476;8.084;2022-08-03T02:55:36;1.73;;;0.93;;
66485;SDS011;53303;47.476;8.084;2022-08-03T02:58:03;2.28;;;1.20;;
66485;SDS011;53303;47.476;8.084;2022-08-03T03:00:30;4.70;;;1.10;;
66485;SDS011;53303;47.476;8.084;2022-08-03T03:02:57;2.38;;;1.20;;
66485;SDS011;53303;47.476;8.084;2022-08-03T03:05:26;2.35;;;1.15;;
66485;SDS011;53303;47.476;8.084;2022-08-03T03:07:53;2.03;;;1.00;;
66485;SDS011;53303;47.476;8.084;2022-08-03T03:10:20;2.08;;;1.02;;
66485;SDS011;53303;47.476;8.084;2022-08-03T03:12:55;3.33;;;1.30;;
66485;SDS011;53303;47.476;8.084;2022-08-03T03:15:25;4.03;;;1.20;;
66485;SDS011;53303;47.476;8.084;2022-08-03T03:17:52;2.97;;;1.40;;
66485;SDS011;53303;47.476;8.084;2022-08-03T03:20:19;2.65;;;1.10;;
66485;SDS011;53303;47.476;8.084;2022-08-03T03:22:48;3.03;;;1.40;;
66485;SDS011;53303;47.476;8.084;2022-08-03T03:25:14;2.78;;;1.20;;
66485;SDS011;53303;47.476;8.084;2022-08-03T03:27:41;1.80;;;1.10;;
66485;SDS011;53303;47.476;8.084;2022-08-03T03:30:07;2.28;;;1.20;;
66485;SDS011;53303;47.476;8.084;2022-08-03T03:32:35;2.35;;;1.20;;
66485;SDS011;53303;47.476;8.084;2022-08-03T03:35:01;2.35;;;1.00;;
66485;SDS011;53303;47.476;8.084;2022-08-03T03:37:28;4.30;;;1.40;;
66485;SDS011;53303;47.476;8.084;2022-08-03T03:39:54;3.45;;;1.20;;
66485;SDS011;53303;47.476;8.084;2022-08-03T03:42:20;2.95;;;1.23;;
66485;SDS011;53303;47.476;8.084;2022-08-03T03:44:46;4.43;;;1.40;;
66485;SDS011;53303;47.476;8.084;2022-08-03T03:47:11;3.33;;;1.30;;
66485;SDS011;53303;47.476;8.084;2022-08-03T03:49:38;3.05;;;1.45;;
66485;SDS011;53303;47.476;8.084;2022-08-03T03:52:06;2.88;;;1.20;;
66485;SDS011;53303;47.476;8.084;2022-08-03T03:54:41;2.42;;;1.30;;
66485;SDS011;53303;47.476;8.084;2022-08-03T03:57:08;6.18;;;1.30;;
66485;SDS011;53303;47.476;8.084;2022-08-03T03:59:40;5.25;;;1.60;;
66485;SDS011;53303;47.476;8.084;2022-08-03T04:02:07;2.58;;;1.33;;
66485;SDS011;53303;47.476;8.084;2022-08-03T04:04:34;5.80;;;1.33;;
66485;SDS011;53303;47.476;8.084;2022-08-03T04:07:19;3.42;;;1.33;;
66485;SDS011;53303;47.476;8.084;2022-08-03T04:10:04;5.55;;;1.58;;
66485;SDS011;53303;47.476;8.084;2022-08-03T04:12:56;14.90;;;2.38;;
66485;SDS011;53303;47.476;8.084;2022-08-03T04:15:24;6.18;;;1.75;;
66485;SDS011;53303;47.476;8.084;2022-08-03T04:17:52;5.10;;;1.70;;
66485;SDS011;53303;47.476;8.084;2022-08-03T04:20:25;5.47;;;1.67;;
66485;SDS011;53303;47.476;8.084;2022-08-03T04:22:54;7.07;;;1.55;;
66485;SDS011;53303;47.476;8.084;2022-08-03T04:25:24;3.47;;;1.38;;
66485;SDS011;53303;47.476;8.084;2022-08-03T04:27:54;3.50;;;1.45;;
66485;SDS011;53303;47.476;8.084;2022-08-03T04:30:25;6.88;;;1.70;;
66485;SDS011;53303;47.476;8.084;2022-08-03T04:32:52;2.92;;;1.58;;
66485;SDS011;53303;47.476;8.084;2022-08-03T04:35:20;5.28;;;1.48;;
66485;SDS011;53303;47.476;8.084;2022-08-03T04:37:48;4.28;;;1.38;;
66485;SDS011;53303;47.476;8.084;2022-08-03T04:40:19;3.65;;;1.23;;
66485;SDS011;53303;47.476;8.084;2022-08-03T04:42:49;11.27;;;1.77;;
66485;SDS011;53303;47.476;8.084;2022-08-03T04:45:19;4.70;;;1.58;;
66485;SDS011;53303;47.476;8.084;2022-08-03T04:47:49;4.63;;;1.40;;
66485;SDS011;53303;47.476;8.084;2022-08-03T04:50:18;5.55;;;1.70;;
66485;SDS011;53303;47.476;8.084;2022-08-03T04:52:44;4.70;;;1.38;;
66485;SDS011;53303;47.476;8.084;2022-08-03T04:55:09;6.00;;;1.90;;
66485;SDS011;53303;47.476;8.084;2022-08-03T04:57:41;7.03;;;1.40;;
66485;SDS011;53303;47.476;8.084;2022-08-03T05:00:06;4.85;;;1.67;;
66485;SDS011;53303;47.476;8.084;2022-08-03T05:02:35;4.30;;;1.70;;
66485;SDS011;53303;47.476;8.084;2022-08-03T05:05:01;4.32;;;1.45;;
66485;SDS011;53303;47.476;8.084;2022-08-03T05:07:28;2.10;;;1.35;;
66485;SDS011;53303;47.476;8.084;2022-08-03T05:09:54;6.57;;;1.50;;
66485;SDS011;53303;47.476;8.084;2022-08-03T05:12:20;7.80;;;1.90;;
66485;SDS011;53303;47.476;8.084;2022-08-03T05:14:49;5.43;;;1.77;;
66485;SDS011;53303;47.476;8.084;2022-08-03T05:17:14;5.55;;;1.80;;
66485;SDS011;53303;47.476;8.084;2022-08-03T05:19:39;3.08;;;1.48;;
66485;SDS011;53303;47.476;8.084;2022-08-03T05:22:05;4.30;;;1.65;;
66485;SDS011;53303;47.476;8.084;2022-08-03T05:24:31;4.10;;;1.42;;
66485;SDS011;53303;47.476;8.084;2022-08-03T05:26:56;5.55;;;1.77;;
66485;SDS011;53303;47.476;8.084;2022-08-03T05:29:23;3.60;;;1.42;;
66485;SDS011;53303;47.476;8.084;2022-08-03T05:31:51;2.58;;;1.33;;
66485;SDS011;53303;47.476;8.084;2022-08-03T05:34:16;5.65;;;1.88;;
66485;SDS011;53303;47.476;8.084;2022-08-03T05:36:42;4.03;;;1.40;;
66485;SDS011;53303;47.476;8.084;2022-08-03T05:39:07;8.38;;;1.60;;
66485;SDS011;53303;47.476;8.084;2022-08-03T05:41:32;4.80;;;1.60;;
66485;SDS011;53303;47.476;8.084;2022-08-03T05:43:59;3.75;;;1.55;;
66485;SDS011;53303;47.476;8.084;2022-08-03T05:46:25;4.95;;;1.67;;
66485;SDS011;53303;47.476;8.084;2022-08-03T05:48:53;3.17;;;1.60;;
66485;SDS011;53303;47.476;8.084;2022-08-03T05:51:18;6.45;;;1.67;;
66485;SDS011;53303;47.476;8.084;2022-08-03T05:53:44;3.60;;;1.52;;
66485;SDS011;53303;47.476;8.084;2022-08-03T05:56:09;3.78;;;1.67;;
66485;SDS011;53303;47.476;8.084;2022-08-03T05:58:35;3.00;;;1.40;;
66485;SDS011;53303;47.476;8.084;2022-08-03T06:01:00;4.38;;;1.65;;
66485;SDS011;53303;47.476;8.084;2022-08-03T06:03:28;4.00;;;1.23;;
66485;SDS011;53303;47.476;8.084;2022-08-03T06:05:56;5.40;;;1.48;;
66485;SDS011;53303;47.476;8.084;2022-08-03T06:08:21;4.10;;;1.70;;
66485;SDS011;53303;47.476;8.084;2022-08-03T06:10:47;6.25;;;1.75;;
66485;SDS011;53303;47.476;8.084;2022-08-03T06:13:13;3.38;;;1.45;;
66485;SDS011;53303;47.476;8.084;2022-08-03T06:15:38;6.22;;;1.85;;
66485;SDS011;53303;47.476;8.084;2022-08-03T06:18:07;3.00;;;1.48;;
66485;SDS011;53303;47.476;8.084;2022-08-03T06:20:32;5.82;;;1.90;;
66485;SDS011;53303;47.476;8.084;2022-08-03T06:22:58;5.50;;;1.85;;
66485;SDS011;53303;47.476;8.084;2022-08-03T06:25:26;7.63;;;1.85;;
66485;SDS011;53303;47.476;8.084;2022-08-03T06:27:52;5.25;;;1.77;;
66485;SDS011;53303;47.476;8.084;2022-08-03T06:30:18;12.05;;;1.85;;
66485;SDS011;53303;47.476;8.084;2022-08-03T06:32:43;3.90;;;1.60;;
66485;SDS011;53303;47.476;8.084;2022-08-03T06:35:11;5.40;;;1.70;;
66485;SDS011;53303;47.476;8.084;2022-08-03T06:37:49;6.38;;;1.80;;
66485;SDS011;53303;47.476;8.084;2022-08-03T06:40:16;4.60;;;1.67;;
66485;SDS011;53303;47.476;8.084;2022-08-03T06:42:43;3.70;;;1.60;;
66485;SDS011;53303;47.476;8.084;2022-08-03T06:45:09;9.32;;;2.20;;
66485;SDS011;53303;47.476;8.084;2022-08-03T06:47:36;6.72;;;1.70;;
66485;SDS011;53303;47.476;8.084;2022-08-03T06:50:07;6.47;;;1.83;;
66485;SDS011;53303;47.476;8.084;2022-08-03T06:52:33;3.78;;;1.52;;
66485;SDS011;53303;47.476;8.084;2022-08-03T06:54:59;4.38;;;1.77;;
66485;SDS011;53303;47.476;8.084;2022-08-03T06:57:25;3.75;;;1.70;;
66485;SDS011;53303;47.476;8.084;2022-08-03T06:59:50;3.72;;;1.55;;
66485;SDS011;53303;47.476;8.084;2022-08-03T07:02:18;4.88;;;1.58;;
66485;SDS011;53303;47.476;8.084;2022-08-03T07:04:44;4.40;;;1.55;;
66485;SDS011;53303;47.476;8.084;2022-08-03T07:07:09;2.95;;;1.48;;
66485;SDS011;53303;47.476;8.084;2022-08-03T07:09:35;4.45;;;1.55;;
66485;SDS011;53303;47.476;8.084;2022-08-03T07:12:02;2.85;;;1.40;;
66485;SDS011;53303;47.476;8.084;2022-08-03T07:14:31;4.35;;;1.83;;
66485;SDS011;53303;47.476;8.084;2022-08-03T07:16:59;4.80;;;1.58;;
66485;SDS011;53303;47.476;8.084;2022-08-03T07:19:30;2.45;;;1.20;;
66485;SDS011;53303;47.476;8.084;2022-08-03T07:21:56;3.33;;;1.60;;
66485;SDS011;53303;47.476;8.084;2022-08-03T07:24:22;3.33;;;1.58;;
66485;SDS011;53303;47.476;8.084;2022-08-03T07:26:48;4.03;;;1.50;;
66485;SDS011;53303;47.476;8.084;2022-08-03T07:29:13;3.38;;;1.60;;
66485;SDS011;53303;47.476;8.084;2022-08-03T07:31:41;2.53;;;1.23;;
66485;SDS011;53303;47.476;8.084;2022-08-03T07:34:06;3.28;;;1.38;;
66485;SDS011;53303;47.476;8.084;2022-08-03T07:36:34;3.90;;;1.52;;
66485;SDS011;53303;47.476;8.084;2022-08-03T07:39:00;3.05;;;1.50;;
66485;SDS011;53303;47.476;8.084;2022-08-03T07:41:31;3.90;;;1.30;;
66485;SDS011;53303;47.476;8.084;2022-08-03T07:44:00;6.15;;;1.70;;
66485;SDS011;53303;47.476;8.084;2022-08-03T07:46:25;4.38;;;1.67;;
66485;SDS011;53303;47.476;8.084;2022-08-03T07:48:53;2.50;;;1.40;;
66485;SDS011;53303;47.476;8.084;2022-08-03T07:51:21;3.88;;;1.50;;
66485;SDS011;53303;47.476;8.084;2022-08-03T07:53:52;3.30;;;1.50;;
66485;SDS011;53303;47.476;8.084;2022-08-03T07:56:18;3.15;;;1.48;;
66485;SDS011;53303;47.476;8.084;2022-08-03T07:58:50;3.33;;;1.60;;
66485;SDS011;53303;47.476;8.084;2022-08-03T08:01:16;3.80;;;1.60;;
66485;SDS011;53303;47.476;8.084;2022-08-03T08:03:43;3.17;;;1.40;;
66485;SDS011;53303;47.476;8.084;2022-08-03T08:06:09;2.72;;;1.23;;
66485;SDS011;53303;47.476;8.084;2022-08-03T08:08:36;3.10;;;1.40;;
66485;SDS011;53303;47.476;8.084;2022-08-03T08:11:03;2.75;;;1.45;;
66485;SDS011;53303;47.476;8.084;2022-08-03T08:13:31;3.22;;;1.40;;
66485;SDS011;53303;47.476;8.084;2022-08-03T08:15:57;2.78;;;1.40;;
66485;SDS011;53303;47.476;8.084;2022-08-03T08:18:22;2.80;;;1.40;;
66485;SDS011;53303;47.476;8.084;2022-08-03T08:20:48;2.88;;;1.40;;
66485;SDS011;53303;47.476;8.084;2022-08-03T08:23:18;3.20;;;1.50;;
66485;SDS011;53303;47.476;8.084;2022-08-03T08:25:47;2.60;;;1.33;;
66485;SDS011;53303;47.476;8.084;2022-08-03T08:28:18;2.88;;;1.38;;
66485;SDS011;53303;47.476;8.084;2022-08-03T08:30:45;2.97;;;1.52;;
66485;SDS011;53303;47.476;8.084;2022-08-03T08:33:11;3.85;;;1.52;;
66485;SDS011;53303;47.476;8.084;2022-08-03T08:35:39;2.67;;;1.30;;
66485;SDS011;53303;47.476;8.084;2022-08-03T08:38:04;2.92;;;1.42;;
66485;SDS011;53303;47.476;8.084;2022-08-03T08:40:30;3.17;;;1.30;;
66485;SDS011;53303;47.476;8.084;2022-08-03T08:42:55;3.35;;;1.50;;
66485;SDS011;53303;47.476;8.084;2022-08-03T08:45:23;5.85;;;1.50;;
66485;SDS011;53303;47.476;8.084;2022-08-03T08:47:51;3.25;;;1.60;;
66485;SDS011;53303;47.476;8.084;2022-08-03T08:50:21;3.20;;;1.50;;
66485;SDS011;53303;47.476;8.084;2022-08-03T08:52:49;2.95;;;1.40;;
66485;SDS011;53303;47.476;8.084;2022-08-03T08:55:22;2.90;;;1.50;;
66485;SDS011;53303;47.476;8.084;2022-08-03T08:57:49;2.85;;;1.20;;
66485;SDS011;53303;47.476;8.084;2022-08-03T09:00:17;3.92;;;1.60;;
66485;SDS011;53303;47.476;8.084;2022-08-03T09:02:54;3.58;;;1.60;;
66485;SDS011;53303;47.476;8.084;2022-08-03T09:05:25;2.90;;;1.42;;
66485;SDS011;53303;47.476;8.084;2022-08-03T09:07:50;1.98;;;1.10;;
66485;SDS011;53303;47.476;8.084;2022-08-03T09:10:18;4.85;;;1.48;;
66485;SDS011;53303;47.476;8.084;2022-08-03T09:12:46;3.40;;;1.60;;
66485;SDS011;53303;47.476;8.084;2022-08-03T09:15:24;2.17;;;1.27;;
66485;SDS011;53303;47.476;8.084;2022-08-03T09:17:53;2.72;;;1.33;;
66485;SDS011;53303;47.476;8.084;2022-08-03T09:20:23;2.47;;;1.40;;
66485;SDS011;53303;47.476;8.084;2022-08-03T09:25:41;2.42;;;1.50;;
66485;SDS011;53303;47.476;8.084;2022-08-03T09:28:14;2.92;;;1.20;;
66485;SDS011;53303;47.476;8.084;2022-08-03T09:30:44;3.40;;;1.58;;
66485;SDS011;53303;47.476;8.084;2022-08-03T09:33:23;2.95;;;1.40;;
66485;SDS011;53303;47.476;8.084;2022-08-03T09:35:53;2.88;;;1.30;;
66485;SDS011;53303;47.476;8.084;2022-08-03T09:38:21;2.85;;;1.33;;
66485;SDS011;53303;47.476;8.084;2022-08-03T09:40:50;3.33;;;1.63;;
66485;SDS011;53303;47.476;8.084;2022-08-03T09:43:18;4.90;;;1.60;;
66485;SDS011;53303;47.476;8.084;2022-08-03T09:45:46;3.63;;;1.42;;
66485;SDS011;53303;47.476;8.084;2022-08-03T09:50:50;2.70;;;1.33;;
66485;SDS011;53303;47.476;8.084;2022-08-03T09:53:25;3.20;;;1.30;;
66485;SDS011;53303;47.476;8.084;2022-08-03T09:55:54;6.13;;;1.65;;
66485;SDS011;53303;47.476;8.084;2022-08-03T09:58:22;3.30;;;1.42;;
66485;SDS011;53303;47.476;8.084;2022-08-03T10:03:25;3.35;;;1.58;;
66485;SDS011;53303;47.476;8.084;2022-08-03T10:05:57;5.00;;;1.63;;
66485;SDS011;53303;47.476;8.084;2022-08-03T10:08:32;3.05;;;1.42;;
66485;SDS011;53303;47.476;8.084;2022-08-03T10:10:57;2.78;;;1.38;;
66485;SDS011;53303;47.476;8.084;2022-08-03T10:13:24;3.90;;;1.40;;
66485;SDS011;53303;47.476;8.084;2022-08-03T10:15:49;2.67;;;1.38;;
66485;SDS011;53303;47.476;8.084;2022-08-03T10:18:15;3.03;;;1.33;;
66485;SDS011;53303;47.476;8.084;2022-08-03T10:20:45;3.55;;;1.60;;
66485;SDS011;53303;47.476;8.084;2022-08-03T10:23:16;4.18;;;1.58;;
66485;SDS011;53303;47.476;8.084;2022-08-03T10:25:45;2.60;;;1.30;;
66485;SDS011;53303;47.476;8.084;2022-08-03T10:28:14;4.43;;;1.40;;
66485;SDS011;53303;47.476;8.084;2022-08-03T10:30:50;2.42;;;1.27;;
66485;SDS011;53303;47.476;8.084;2022-08-03T10:33:19;2.83;;;1.40;;
66485;SDS011;53303;47.476;8.084;2022-08-03T10:35:46;2.65;;;1.33;;
66485;SDS011;53303;47.476;8.084;2022-08-03T10:38:21;4.32;;;1.30;;
66485;SDS011;53303;47.476;8.084;2022-08-03T10:40:52;2.17;;;1.20;;
66485;SDS011;53303;47.476;8.084;2022-08-03T10:43:24;2.72;;;1.30;;
66485;SDS011;53303;47.476;8.084;2022-08-03T10:45:51;3.30;;;1.20;;
66485;SDS011;53303;47.476;8.084;2022-08-03T10:48:17;3.28;;;1.50;;
66485;SDS011;53303;47.476;8.084;2022-08-03T10:50:48;1.88;;;1.13;;
66485;SDS011;53303;47.476;8.084;2022-08-03T10:53:16;2.30;;;1.10;;
66485;SDS011;53303;47.476;8.084;2022-08-03T10:56:01;2.45;;;1.40;;
66485;SDS011;53303;47.476;8.084;2022-08-03T10:58:50;4.07;;;1.42;;
66485;SDS011;53303;47.476;8.084;2022-08-03T11:01:47;3.50;;;1.20;;
66485;SDS011;53303;47.476;8.084;2022-08-03T11:04:23;3.40;;;1.27;;
66485;SDS011;53303;47.476;8.084;2022-08-03T11:09:41;2.45;;;1.30;;
66485;SDS011;53303;47.476;8.084;2022-08-03T11:12:25;2.90;;;1.45;;
66485;SDS011;53303;47.476;8.084;2022-08-03T11:14:52;2.88;;;1.48;;
66485;SDS011;53303;47.476;8.084;2022-08-03T11:17:19;3.28;;;1.35;;
66485;SDS011;53303;47.476;8.084;2022-08-03T11:19:46;3.13;;;1.20;;
66485;SDS011;53303;47.476;8.084;2022-08-03T11:22:12;3.63;;;1.50;;
66485;SDS011;53303;47.476;8.084;2022-08-03T11:38:09;3.83;;;1.45;;
66485;SDS011;53303;47.476;8.084;2022-08-03T11:43:50;3.38;;;1.30;;
66485;SDS011;53303;47.476;8.084;2022-08-03T11:45:59;3.00;;;1.48;;
66485;SDS011;53303;47.476;8.084;2022-08-03T11:50:57;3.42;;;1.40;;
66485;SDS011;53303;47.476;8.084;2022-08-03T11:53:23;3.72;;;1.63;;
66485;SDS011;53303;47.476;8.084;2022-08-03T11:55:49;2.78;;;1.30;;
66485;SDS011;53303;47.476;8.084;2022-08-03T11:58:18;3.83;;;1.60;;
66485;SDS011;53303;47.476;8.084;2022-08-03T12:00:45;3.28;;;1.40;;
66485;SDS011;53303;47.476;8.084;2022-08-03T12:03:14;2.40;;;1.35;;
66485;SDS011;53303;47.476;8.084;2022-08-03T12:08:12;3.53;;;1.50;;
66485;SDS011;53303;47.476;8.084;2022-08-03T12:10:43;3.60;;;1.33;;
66485;SDS011;53303;47.476;8.084;2022-08-03T12:13:14;6.05;;;1.60;;
66485;SDS011;53303;47.476;8.084;2022-08-03T12:15:41;2.53;;;1.30;;
66485;SDS011;53303;47.476;8.084;2022-08-03T12:18:14;2.63;;;1.20;;
66485;SDS011;53303;47.476;8.084;2022-08-03T12:20:43;2.55;;;1.20;;
66485;SDS011;53303;47.476;8.084;2022-08-03T12:23:12;3.25;;;1.40;;
66485;SDS011;53303;47.476;8.084;2022-08-03T12:25:38;2.17;;;1.20;;
66485;SDS011;53303;47.476;8.084;2022-08-03T12:28:08;3.65;;;1.27;;
66485;SDS011;53303;47.476;8.084;2022-08-03T12:30:35;2.80;;;1.42;;
66485;SDS011;53303;47.476;8.084;2022-08-03T12:33:14;2.85;;;1.30;;
66485;SDS011;53303;47.476;8.084;2022-08-03T12:35:40;2.10;;;1.13;;
66485;SDS011;53303;47.476;8.084;2022-08-03T12:38:06;2.25;;;1.13;;
66485;SDS011;53303;47.476;8.084;2022-08-03T12:40:34;2.13;;;1.05;;
66485;SDS011;53303;47.476;8.084;2022-08-03T12:43:09;2.90;;;1.40;;
66485;SDS011;53303;47.476;8.084;2022-08-03T12:45:36;2.20;;;1.17;;
66485;SDS011;53303;47.476;8.084;2022-08-03T12:48:01;2.00;;;1.10;;
66485;SDS011;53303;47.476;8.084;2022-08-03T12:50:28;2.60;;;1.30;;
66485;SDS011;53303;47.476;8.084;2022-08-03T12:52:59;2.97;;;1.50;;
66485;SDS011;53303;47.476;8.084;2022-08-03T12:55:31;2.78;;;1.33;;
66485;SDS011;53303;47.476;8.084;2022-08-03T12:57:59;2.22;;;1.23;;
66485;SDS011;53303;47.476;8.084;2022-08-03T13:00:25;2.33;;;1.10;;
66485;SDS011;53303;47.476;8.084;2022-08-03T13:02:58;3.35;;;1.13;;
66485;SDS011;53303;47.476;8.084;2022-08-03T13:05:26;2.47;;;1.27;;
66485;SDS011;53303;47.476;8.084;2022-08-03T13:07:52;3.17;;;1.20;;
66485;SDS011;53303;47.476;8.084;2022-08-03T13:10:30;2.88;;;1.30;;
66485;SDS011;53303;47.476;8.084;2022-08-03T13:12:57;2.22;;;1.02;;
66485;SDS011;53303;47.476;8.084;2022-08-03T13:15:26;2.28;;;1.15;;
66485;SDS011;53303;47.476;8.084;2022-08-03T13:17:55;2.60;;;1.20;;
66485;SDS011;53303;47.476;8.084;2022-08-03T13:20:21;1.90;;;1.15;;
66485;SDS011;53303;47.476;8.084;2022-08-03T13:22:47;3.00;;;1.13;;
66485;SDS011;53303;47.476;8.084;2022-08-03T13:25:13;2.05;;;1.10;;
66485;SDS011;53303;47.476;8.084;2022-08-03T13:27:39;1.95;;;1.00;;
66485;SDS011;53303;47.476;8.084;2022-08-03T13:30:07;3.15;;;1.38;;
66485;SDS011;53303;47.476;8.084;2022-08-03T13:32:36;6.70;;;1.27;;
66485;SDS011;53303;47.476;8.084;2022-08-03T13:35:01;2.85;;;1.20;;
66485;SDS011;53303;47.476;8.084;2022-08-03T13:37:27;3.15;;;1.20;;
66485;SDS011;53303;47.476;8.084;2022-08-03T13:39:53;4.68;;;1.40;;
66485;SDS011;53303;47.476;8.084;2022-08-03T13:42:19;2.28;;;1.15;;
66485;SDS011;53303;47.476;8.084;2022-08-03T13:44:44;3.30;;;1.00;;
66485;SDS011;53303;47.476;8.084;2022-08-03T13:47:10;2.22;;;1.10;;
66485;SDS011;53303;47.476;8.084;2022-08-03T13:49:38;2.13;;;1.02;;
66485;SDS011;53303;47.476;8.084;2022-08-03T13:52:03;2.35;;;1.02;;
66485;SDS011;53303;47.476;8.084;2022-08-03T13:54:29;2.60;;;1.20;;
66485;SDS011;53303;47.476;8.084;2022-08-03T13:56:57;2.30;;;1.00;;
66485;SDS011;53303;47.476;8.084;2022-08-03T13:59:23;3.38;;;1.23;;
66485;SDS011;53303;47.476;8.084;2022-08-03T14:01:53;1.63;;;0.98;;
66485;SDS011;53303;47.476;8.084;2022-08-03T14:04:18;2.38;;;1.23;;
66485;SDS011;53303;47.476;8.084;2022-08-03T14:06:48;3.28;;;1.45;;
66485;SDS011;53303;47.476;8.084;2022-08-03T14:09:16;1.75;;;1.10;;
66485;SDS011;53303;47.476;8.084;2022-08-03T14:11:42;2.22;;;1.27;;
66485;SDS011;53303;47.476;8.084;2022-08-03T14:14:10;2.92;;;1.30;;
66485;SDS011;53303;47.476;8.084;2022-08-03T14:16:36;2.88;;;1.20;;
66485;SDS011;53303;47.476;8.084;2022-08-03T14:19:04;1.63;;;0.93;;
66485;SDS011;53303;47.476;8.084;2022-08-03T14:21:31;3.15;;;1.20;;
66485;SDS011;53303;47.476;8.084;2022-08-03T14:23:57;2.92;;;1.23;;
66485;SDS011;53303;47.476;8.084;2022-08-03T14:26:25;2.38;;;1.02;;
66485;SDS011;53303;47.476;8.084;2022-08-03T14:28:51;2.80;;;1.10;;
66485;SDS011;53303;47.476;8.084;2022-08-03T14:31:16;2.13;;;1.05;;
66485;SDS011;53303;47.476;8.084;2022-08-03T14:34:05;2.95;;;1.30;;
66485;SDS011;53303;47.476;8.084;2022-08-03T14:36:30;3.22;;;1.10;;
66485;SDS011;53303;47.476;8.084;2022-08-03T14:38:58;2.55;;;1.10;;
66485;SDS011;53303;47.476;8.084;2022-08-03T14:41:23;3.50;;;1.23;;
66485;SDS011;53303;47.476;8.084;2022-08-03T14:43:48;2.55;;;1.10;;
66485;SDS011;53303;47.476;8.084;2022-08-03T14:46:14;2.60;;;1.15;;
66485;SDS011;53303;47.476;8.084;2022-08-03T14:48:44;2.58;;;1.10;;
66485;SDS011;53303;47.476;8.084;2022-08-03T14:51:11;2.80;;;1.00;;
66485;SDS011;53303;47.476;8.084;2022-08-03T14:53:37;2.67;;;1.13;;
66485;SDS011;53303;47.476;8.084;2022-08-03T14:56:03;2.40;;;1.27;;
66485;SDS011;53303;47.476;8.084;2022-08-03T14:58:29;2.83;;;1.10;;
66485;SDS011;53303;47.476;8.084;2022-08-03T15:00:54;6.65;;;1.58;;
66485;SDS011;53303;47.476;8.084;2022-08-03T15:03:21;6.45;;;1.98;;
66485;SDS011;53303;47.476;8.084;2022-08-03T15:05:49;5.82;;;2.00;;
66485;SDS011;53303;47.476;8.084;2022-08-03T15:08:20;6.20;;;1.90;;
66485;SDS011;53303;47.476;8.084;2022-08-03T15:10:47;7.22;;;2.22;;
66485;SDS011;53303;47.476;8.084;2022-08-03T15:13:13;6.55;;;1.95;;
66485;SDS011;53303;47.476;8.084;2022-08-03T15:15:40;9.25;;;2.10;;
66485;SDS011;53303;47.476;8.084;2022-08-03T15:18:06;5.43;;;1.67;;
66485;SDS011;53303;47.476;8.084;2022-08-03T15:20:34;5.20;;;1.60;;
66485;SDS011;53303;47.476;8.084;2022-08-03T15:23:00;4.75;;;1.60;;
66485;SDS011;53303;47.476;8.084;2022-08-03T15:25:29;5.15;;;1.80;;
66485;SDS011;53303;47.476;8.084;2022-08-03T15:27:57;4.35;;;1.45;;
66485;SDS011;53303;47.476;8.084;2022-08-03T15:30:25;5.25;;;1.58;;
66485;SDS011;53303;47.476;8.084;2022-08-03T15:32:50;3.10;;;1.25;;
66485;SDS011;53303;47.476;8.084;2022-08-03T15:35:16;4.97;;;1.52;;
66485;SDS011;53303;47.476;8.084;2022-08-03T15:37:41;3.72;;;1.58;;
66485;SDS011;53303;47.476;8.084;2022-08-03T15:40:09;2.90;;;1.20;;
66485;SDS011;53303;47.476;8.084;2022-08-03T15:42:34;4.32;;;1.38;;
66485;SDS011;53303;47.476;8.084;2022-08-03T15:45:02;2.58;;;1.02;;
66485;SDS011;53303;47.476;8.084;2022-08-03T15:47:28;3.33;;;1.42;;